Wetterdaten: Woche 11.02.19 - 17.02.19 (KW7)
Datum Zeit Temp. Aussen Temp. o. S. +5cm Feuchte Auss Luftdruck Regen Sonnenschein Regendauer Solar Windben Empfang
11.02.2019 00:00 3,3 C 2,8 C 2,2 C 97 % 1002,4 hPa 0,8 l/m 0,00 h 1,00 h 0 W/m 19,4 km/h (3 Bft) 96,03 %
11.02.2019 01:00 3,2 C 2,4 C 2,2 C 98 % 1004,2 hPa 0,4 l/m 0,00 h 1,00 h 0 W/m 18,6 km/h (3 Bft) 98,84 %
11.02.2019 02:00 3,2 C 2,7 C 2,2 C 98 % 1005,4 hPa 0,4 l/m 0,00 h 0,50 h 0 W/m 12,6 km/h (3 Bft) 97,65 %
11.02.2019 03:00 3,3 C 2,7 C 2,2 C 98 % 1006,3 hPa 0,2 l/m 0,00 h 0,00 h 0 W/m 14,4 km/h (3 Bft) 95,85 %
11.02.2019 04:00 3,4 C 2,9 C 2,4 C 98 % 1007,5 hPa 0,0 l/m 0,00 h 0,00 h 0 W/m 16,2 km/h (3 Bft) 99,22 %
11.02.2019 05:00 3,5 C 2,8 C 2,4 C 98 % 1008,6 hPa 0,0 l/m 0,00 h 0,00 h 0 W/m 19,3 km/h (3 Bft) 96,70 %
11.02.2019 06:00 3,3 C 2,4 C 2,1 C 97 % 1009,6 hPa 0,0 l/m 0,00 h 0,00 h 0 W/m 15,2 km/h (3 Bft) 97,78 %
11.02.2019 07:00 3,2 C 2,7 C 2,1 C 97 % 1011,1 hPa 0,0 l/m 0,00 h 0,00 h 0 W/m 15,6 km/h (3 Bft) 97,94 %
11.02.2019 08:00 3,4 C 2,9 C 2,4 C 97 % 1012,4 hPa 0,0 l/m 0,00 h 0,00 h 22 W/m 11,9 km/h (2 Bft) 96,37 %
11.02.2019 09:00 3,6 C 3,8 C 2,9 C 96 % 1013,6 hPa 0,0 l/m 0,23 h 0,00 h 88 W/m 12,8 km/h (3 Bft) 98,86 %
11.02.2019 10:00 4,8 C 7,0 C 4,4 C 95 % 1014,7 hPa 0,0 l/m 0,57 h 0,00 h 200 W/m 16,0 km/h (3 Bft) 96,80 %
11.02.2019 11:00 5,8 C 7,1 C 5,7 C 91 % 1015,7 hPa 0,0 l/m 0,67 h 0,00 h 206 W/m 22,8 km/h (4 Bft) 97,66 %
11.02.2019 12:00 6,5 C 6,4 C 5,4 C 89 % 1016,5 hPa 0,2 l/m 0,17 h 0,77 h 107 W/m 19,4 km/h (3 Bft) 96,00 %
11.02.2019 13:00 6,5 C 6,4 C 5,1 C 92 % 1017,7 hPa 0,8 l/m 0,30 h 0,67 h 156 W/m 19,8 km/h (4 Bft) 97,24 %
11.02.2019 14:00 6,5 C 6,5 C 5,2 C 93 % 1018,8 hPa 0,4 l/m 0,30 h 0,33 h 156 W/m 17,1 km/h (3 Bft) 98,00 %
11.02.2019 15:00 5,8 C 6,9 C 4,4 C 93 % 1020,0 hPa 0,0 l/m 0,37 h 0,00 h 132 W/m 12,6 km/h (3 Bft) 94,81 %
11.02.2019 16:00 5,8 C 6,7 C 4,3 C 92 % 1021,0 hPa 0,0 l/m 0,30 h 0,00 h 71 W/m 15,2 km/h (3 Bft) 97,72 %
11.02.2019 17:00 5,3 C 4,7 C 3,4 C 87 % 1022,6 hPa 0,0 l/m 0,00 h 0,00 h 14 W/m 18,0 km/h (3 Bft) 98,01 %
11.02.2019 18:00 4,4 C 3,2 C 2,3 C 84 % 1024,3 hPa 0,0 l/m 0,00 h 0,00 h 0 W/m 10,6 km/h (2 Bft) 95,13 %
11.02.2019 19:00 3,4 C 1,7 C 0,3 C 85 % 1025,3 hPa 0,0 l/m 0,00 h 0,00 h 0 W/m 3,1 km/h (1 Bft) 97,58 %
11.02.2019 20:00 2,3 C 1,0 C -0,4 C 88 % 1025,9 hPa 0,0 l/m 0,00 h 0,00 h 0 W/m 4,1 km/h (1 Bft) 96,31 %
11.02.2019 21:00 1,6 C 0,3 C -0,9 C 90 % 1026,7 hPa 0,0 l/m 0,00 h 0,00 h 0 W/m 3,0 km/h (1 Bft) 97,93 %
11.02.2019 22:00 1,1 C 0,1 C -0,9 C 92 % 1027,7 hPa 0,0 l/m 0,00 h 0,00 h 0 W/m 4,4 km/h (1 Bft) 96,52 %
11.02.2019 23:00 1,0 C 0,4 C -0,2 C 93 % 1028,1 hPa 0,0 l/m 0,00 h 0,00 h 0 W/m 5,5 km/h (1 Bft) 96,94 %
12.02.2019 00:00 1,0 C 0,1 C -0,5 C 94 % 1028,6 hPa 0,0 l/m 0,00 h 0,00 h 0 W/m 4,5 km/h (1 Bft) 98,48 %
12.02.2019 01:00 0,9 C 0,4 C -0,2 C 95 % 1029,3 hPa 0,0 l/m 0,00 h 0,00 h 0 W/m 4,5 km/h (1 Bft) 97,58 %
12.02.2019 02:00 0,8 C 0,0 C -0,6 C 95 % 1029,5 hPa 0,0 l/m 0,00 h 0,00 h 0 W/m 2,1 km/h (1 Bft) 96,01 %
12.02.2019 03:00 0,6 C 0,0 C -0,6 C 96 % 1029,7 hPa 0,0 l/m 0,00 h 0,00 h 0 W/m 3,6 km/h (1 Bft) 99,72 %
12.02.2019 04:00 0,5 C -0,1 C -0,6 C 96 % 1029,9 hPa 0,0 l/m 0,00 h 0,00 h 0 W/m 5,2 km/h (1 Bft) 96,70 %
12.02.2019 05:00 0,3 C -0,6 C -1,1 C 96 % 1030,1 hPa 0,0 l/m 0,00 h 0,00 h 0 W/m 3,4 km/h (1 Bft) 96,05 %
12.02.2019 06:00 0,2 C -0,3 C -0,8 C 96 % 1030,2 hPa 0,0 l/m 0,00 h 0,00 h 0 W/m 5,1 km/h (1 Bft) 98,28 %
12.02.2019 07:00 0,4 C 0,0 C -0,6 C 97 % 1030,3 hPa 0,0 l/m 0,00 h 0,00 h 0 W/m 6,5 km/h (2 Bft) 96,98 %
12.02.2019 08:00 0,6 C 0,6 C -0,0 C 97 % 1030,8 hPa 0,2 l/m 0,10 h 0,00 h 29 W/m 7,4 km/h (2 Bft) 95,88 %
12.02.2019 09:00 1,3 C 1,7 C 1,1 C 97 % 1031,8 hPa 0,0 l/m 0,17 h 0,00 h 76 W/m 6,1 km/h (2 Bft) 94,85 %
12.02.2019 10:00 2,2 C 2,6 C 2,0 C 97 % 1032,1 hPa 0,0 l/m 0,00 h 0,00 h 92 W/m 7,8 km/h (2 Bft) 98,66 %
12.02.2019 11:00 2,9 C 3,9 C 3,1 C 97 % 1032,4 hPa 0,0 l/m 0,00 h 0,00 h 158 W/m 10,5 km/h (2 Bft) 98,18 %
12.02.2019 12:00 4,1 C 5,7 C 4,6 C 95 % 1032,3 hPa 0,0 l/m 0,40 h 0,00 h 201 W/m 11,1 km/h (2 Bft) 82,26 %
12.02.2019 13:00 5,6 C 9,0 C 6,3 C 90 % 1032,1 hPa 0,0 l/m 1,00 h 0,00 h 340 W/m 11,8 km/h (2 Bft) 97,87 %
12.02.2019 14:00 7,5 C 10,1 C 7,3 C 84 % 1031,8 hPa 0,0 l/m 1,00 h 0,00 h 332 W/m 12,1 km/h (2 Bft) 96,72 %
12.02.2019 15:00 7,8 C 10,0 C 6,5 C 81 % 1032,0 hPa 0,0 l/m 0,80 h 0,00 h 198 W/m 12,0 km/h (2 Bft) 99,50 %
12.02.2019 16:00 7,0 C 6,6 C 5,6 C 83 % 1032,0 hPa 0,0 l/m 0,13 h 0,00 h 73 W/m 11,7 km/h (2 Bft) 94,88 %
12.02.2019 17:00 6,3 C 5,5 C 4,7 C 86 % 1032,1 hPa 0,0 l/m 0,07 h 0,00 h 20 W/m 8,2 km/h (2 Bft) 97,86 %
12.02.2019 18:00 5,7 C 4,9 C 4,2 C 88 % 1032,5 hPa 0,0 l/m 0,00 h 0,00 h 0 W/m 7,3 km/h (2 Bft) 99,22 %
12.02.2019 19:00 5,1 C 4,3 C 3,5 C 89 % 1032,7 hPa 0,0 l/m 0,00 h 0,00 h 0 W/m 7,0 km/h (2 Bft) 93,24 %
12.02.2019 20:00 4,4 C 3,6 C 3,0 C 90 % 1032,6 hPa 0,0 l/m 0,00 h 0,00 h 0 W/m 8,1 km/h (2 Bft) 96,59 %
12.02.2019 21:00 4,0 C 3,3 C 2,8 C 90 % 1032,9 hPa 0,0 l/m 0,00 h 0,00 h 0 W/m 8,0 km/h (2 Bft) 92,66 %
12.02.2019 22:00 3,6 C 2,8 C 2,2 C 90 % 1033,0 hPa 0,0 l/m 0,00 h 0,00 h 0 W/m 8,0 km/h (2 Bft) 91,81 %
12.02.2019 23:00 3,4 C 2,9 C 2,2 C 91 % 1033,4 hPa 0,0 l/m 0,00 h 0,00 h 0 W/m 10,4 km/h (2 Bft) 82,28 %
13.02.2019 00:00 3,3 C 2,8 C 2,2 C 91 % 1033,6 hPa 0,0 l/m 0,00 h 0,00 h 0 W/m 10,6 km/h (2 Bft) 83,06 %
13.02.2019 01:00 3,0 C 2,6 C 1,8 C 91 % 1033,7 hPa 0,0 l/m 0,00 h 0,00 h 0 W/m 10,2 km/h (2 Bft) 94,95 %
13.02.2019 02:00 2,9 C 2,3 C 1,7 C 91 % 1033,8 hPa 0,0 l/m 0,00 h 0,00 h 0 W/m 9,8 km/h (2 Bft) 87,27 %
13.02.2019 03:00 2,5 C 1,9 C 1,2 C 91 % 1033,7 hPa 0,0 l/m 0,00 h 0,00 h 0 W/m 10,3 km/h (2 Bft) 88,74 %
13.02.2019 04:00 2,0 C 1,4 C 0,8 C 91 % 1033,3 hPa 0,0 l/m 0,00 h 0,00 h 0 W/m 8,8 km/h (2 Bft) 85,12 %
13.02.2019 05:00 1,5 C 0,7 C -0,3 C 91 % 1033,4 hPa 0,0 l/m 0,00 h 0,00 h 0 W/m 4,6 km/h (1 Bft) 86,84 %
13.02.2019 06:00 1,1 C 0,6 C -0,1 C 92 % 1033,3 hPa 0,0 l/m 0,00 h 0,00 h 0 W/m 6,9 km/h (2 Bft) 91,09 %
13.02.2019 07:00 0,8 C 0,5 C -0,3 C 93 % 1033,7 hPa 0,0 l/m 0,00 h 0,00 h 0 W/m 3,4 km/h (1 Bft) 95,84 %
13.02.2019 08:00 0,9 C 0,7 C 0,2 C 93 % 1034,3 hPa 0,0 l/m 0,00 h 0,00 h 24 W/m 10,8 km/h (2 Bft) 98,09 %
13.02.2019 09:00 1,5 C 2,6 C 1,6 C 93 % 1034,5 hPa 0,0 l/m 0,37 h 0,00 h 101 W/m 9,8 km/h (2 Bft) 95,81 %
13.02.2019 10:00 3,2 C 5,6 C 3,8 C 91 % 1034,5 hPa 0,0 l/m 0,70 h 0,00 h 179 W/m 8,4 km/h (2 Bft) 95,78 %
13.02.2019 11:00 5,6 C 8,1 C 6,2 C 83 % 1034,3 hPa 0,0 l/m 1,00 h 0,00 h 257 W/m 8,8 km/h (2 Bft) 97,30 %
13.02.2019 12:00 7,5 C 10,8 C 8,4 C 78 % 1034,3 hPa 0,0 l/m 1,00 h 0,00 h 301 W/m 9,2 km/h (2 Bft) 97,77 %
13.02.2019 13:00 9,1 C 13,5 C 9,2 C 75 % 1034,2 hPa 0,0 l/m 1,00 h 0,00 h 352 W/m 9,2 km/h (2 Bft) 95,75 %
13.02.2019 14:00 9,5 C 12,0 C 8,7 C 72 % 1033,6 hPa 0,0 l/m 1,00 h 0,00 h 302 W/m 10,0 km/h (2 Bft) 98,35 %
13.02.2019 15:00 9,0 C 9,3 C 8,0 C 73 % 1033,3 hPa 0,0 l/m 0,53 h 0,00 h 152 W/m 11,4 km/h (2 Bft) 95,95 %
13.02.2019 16:00 8,2 C 7,8 C 7,1 C 75 % 1033,3 hPa 0,0 l/m 0,00 h 0,00 h 72 W/m 9,1 km/h (2 Bft) 98,77 %
13.02.2019 17:00 7,7 C 6,6 C 5,5 C 77 % 1033,5 hPa 0,0 l/m 0,00 h 0,00 h 22 W/m 4,8 km/h (1 Bft) 96,96 %
13.02.2019 18:00 6,4 C 4,4 C 2,7 C 79 % 1033,7 hPa 0,0 l/m 0,00 h 0,00 h 0 W/m 1,1 km/h (0 Bft) 95,60 %
13.02.2019 19:00 5,2 C 4,6 C 2,8 C 85 % 1033,7 hPa 0,0 l/m 0,00 h 0,00 h 0 W/m 4,7 km/h (1 Bft) 93,45 %
13.02.2019 20:00 4,9 C 4,3 C 2,0 C 86 % 1033,6 hPa 0,0 l/m 0,00 h 0,00 h 0 W/m 4,1 km/h (1 Bft) 96,93 %
13.02.2019 21:00 4,5 C 3,9 C 2,9 C 87 % 1033,5 hPa 0,0 l/m 0,00 h 0,00 h 0 W/m 6,3 km/h (2 Bft) 94,95 %
13.02.2019 22:00 4,1 C 3,2 C 2,5 C 88 % 1033,4 hPa 0,0 l/m 0,00 h 0,00 h 0 W/m 7,5 km/h (2 Bft) 96,92 %
13.02.2019 23:00 3,4 C 2,5 C 1,9 C 88 % 1033,1 hPa 0,0 l/m 0,00 h 0,00 h 0 W/m 8,3 km/h (2 Bft) 98,98 %
14.02.2019 00:00 2,7 C 1,8 C 1,2 C 89 % 1033,3 hPa 0,0 l/m 0,00 h 0,00 h 0 W/m 5,7 km/h (1 Bft) 96,89 %
14.02.2019 01:00 2,2 C 1,6 C 0,9 C 91 % 1033,3 hPa 0,0 l/m 0,00 h 0,00 h 0 W/m 8,6 km/h (2 Bft) 96,58 %
14.02.2019 02:00 1,8 C 1,1 C 0,6 C 92 % 1033,2 hPa 0,0 l/m 0,00 h 0,00 h 0 W/m 10,0 km/h (2 Bft) 98,08 %
14.02.2019 03:00 1,6 C 1,0 C 0,3 C 92 % 1033,2 hPa 0,0 l/m 0,00 h 0,00 h 0 W/m 10,5 km/h (2 Bft) 96,94 %
14.02.2019 04:00 1,3 C 0,7 C 0,0 C 92 % 1033,3 hPa 0,0 l/m 0,00 h 0,00 h 0 W/m 11,0 km/h (2 Bft) 99,08 %
14.02.2019 05:00 1,0 C 0,6 C -0,2 C 92 % 1033,3 hPa 0,0 l/m 0,00 h 0,00 h 0 W/m 10,0 km/h (2 Bft) 95,51 %
14.02.2019 06:00 0,8 C 0,4 C -0,5 C 92 % 1033,5 hPa 0,0 l/m 0,00 h 0,00 h 0 W/m 11,1 km/h (2 Bft) 97,93 %
14.02.2019 07:00 0,6 C 0,0 C -0,6 C 92 % 1033,8 hPa 0,0 l/m 0,00 h 0,00 h 5 W/m 10,2 km/h (2 Bft) 97,99 %
14.02.2019 08:00 0,7 C 0,6 C -0,1 C 92 % 1034,2 hPa 0,0 l/m 0,00 h 0,00 h 17 W/m 12,0 km/h (2 Bft) 94,59 %
14.02.2019 09:00 2,0 C 4,3 C 1,3 C 90 % 1034,2 hPa 0,0 l/m 0,53 h 0,00 h 148 W/m 16,3 km/h (3 Bft) 98,30 %
14.02.2019 10:00 4,8 C 8,5 C 4,4 C 81 % 1034,1 hPa 0,0 l/m 0,90 h 0,00 h 304 W/m 14,9 km/h (3 Bft) 97,98 %
14.02.2019 11:00 6,8 C 10,4 C 6,2 C 74 % 1034,1 hPa 0,0 l/m 1,00 h 0,00 h 366 W/m 15,0 km/h (3 Bft) 97,73 %
14.02.2019 12:00 9,2 C 14,1 C 10,6 C 66 % 1034,0 hPa 0,0 l/m 1,00 h 0,00 h 469 W/m 15,4 km/h (3 Bft) 98,52 %
14.02.2019 13:00 10,9 C 14,3 C 11,7 C 59 % 1033,3 hPa 0,0 l/m 1,00 h 0,00 h 357 W/m 11,4 km/h (2 Bft) 97,82 %
14.02.2019 14:00 12,3 C 16,6 C 11,6 C 55 % 1032,8 hPa 0,0 l/m 1,00 h 0,00 h 391 W/m 10,0 km/h (2 Bft) 97,27 %
14.02.2019 15:00 12,3 C 15,3 C 10,0 C 57 % 1032,5 hPa 0,0 l/m 0,90 h 0,00 h 259 W/m 8,4 km/h (2 Bft) 97,22 %
14.02.2019 16:00 12,2 C 13,0 C 8,2 C 56 % 1031,9 hPa 0,0 l/m 0,37 h 0,00 h 96 W/m 4,8 km/h (1 Bft) 97,86 %
14.02.2019 17:00 10,0 C 7,5 C 4,4 C 66 % 1031,6 hPa 0,0 l/m 0,00 h 0,00 h 16 W/m 0,6 km/h (0 Bft) 97,92 %
14.02.2019 18:00 6,9 C 4,4 C 2,2 C 75 % 1031,7 hPa 0,0 l/m 0,00 h 0,00 h 0 W/m 0,0 km/h (0 Bft) 96,39 %
14.02.2019 19:00 4,8 C 2,9 C 1,0 C 79 % 1031,8 hPa 0,0 l/m 0,00 h 0,00 h 0 W/m 1,8 km/h (1 Bft) 98,65 %
14.02.2019 20:00 4,0 C 4,2 C 0,8 C 77 % 1031,6 hPa 0,0 l/m 0,00 h 0,00 h 0 W/m 3,4 km/h (1 Bft) 97,51 %
14.02.2019 21:00 4,9 C 5,7 C 2,8 C 70 % 1031,5 hPa 0,0 l/m 0,00 h 0,00 h 0 W/m 8,8 km/h (2 Bft) 96,47 %
14.02.2019 22:00 6,6 C 6,0 C 4,8 C 65 % 1031,4 hPa 0,0 l/m 0,00 h 0,00 h 0 W/m 11,6 km/h (2 Bft) 99,29 %
14.02.2019 23:00 6,1 C 5,1 C 3,9 C 67 % 1031,4 hPa 0,0 l/m 0,00 h 0,00 h 0 W/m 9,0 km/h (2 Bft) 97,15 %
15.02.2019 00:00 5,3 C 4,5 C 3,5 C 71 % 1031,4 hPa 0,0 l/m 0,00 h 0,00 h 0 W/m 11,3 km/h (2 Bft) 95,63 %
15.02.2019 01:00 5,0 C 4,2 C 3,2 C 71 % 1031,5 hPa 0,0 l/m 0,00 h 0,00 h 0 W/m 10,1 km/h (2 Bft) 99,22 %
15.02.2019 02:00 4,4 C 3,5 C 1,8 C 71 % 1031,3 hPa 0,0 l/m 0,00 h 0,00 h 0 W/m 6,7 km/h (2 Bft) 97,87 %
15.02.2019 03:00 3,9 C 3,5 C 2,3 C 71 % 1030,8 hPa 0,0 l/m 0,00 h 0,00 h 0 W/m 11,2 km/h (2 Bft) 96,44 %
15.02.2019 04:00 4,1 C 3,5 C 2,7 C 70 % 1030,5 hPa 0,0 l/m 0,00 h 0,00 h 0 W/m 11,5 km/h (2 Bft) 97,41 %
15.02.2019 05:00 3,9 C 3,3 C 1,9 C 71 % 1030,4 hPa 0,0 l/m 0,00 h 0,00 h 0 W/m 7,9 km/h (2 Bft) 98,83 %
15.02.2019 06:00 3,7 C 3,3 C 2,1 C 72 % 1030,3 hPa 0,0 l/m 0,00 h 0,00 h 0 W/m 11,0 km/h (2 Bft) 97,77 %
15.02.2019 07:00 3,6 C 3,0 C 2,1 C 74 % 1030,3 hPa 0,0 l/m 0,00 h 0,00 h 5 W/m 10,3 km/h (2 Bft) 95,01 %
15.02.2019 08:00 3,8 C 3,7 C 2,7 C 74 % 1030,6 hPa 0,0 l/m 0,00 h 0,00 h 16 W/m 14,5 km/h (3 Bft) 98,11 %
15.02.2019 09:00 5,5 C 7,5 C 4,8 C 72 % 1030,4 hPa 0,0 l/m 0,53 h 0,00 h 149 W/m 19,3 km/h (3 Bft) 97,09 %
15.02.2019 10:00 8,8 C 12,2 C 8,1 C 63 % 1030,1 hPa 0,0 l/m 1,00 h 0,00 h 354 W/m 25,4 km/h (4 Bft) 95,39 %
15.02.2019 11:00 10,7 C 14,5 C 9,5 C 60 % 1029,8 hPa 0,0 l/m 1,00 h 0,00 h 445 W/m 24,1 km/h (4 Bft) 94,87 %
15.02.2019 12:00 13,1 C 17,5 C 14,8 C 55 % 1029,5 hPa 0,0 l/m 1,00 h 0,00 h 494 W/m 20,6 km/h (4 Bft) 98,05 %
15.02.2019 13:00 14,8 C 19,2 C 15,8 C 52 % 1028,6 hPa 0,0 l/m 1,00 h 0,00 h 487 W/m 20,7 km/h (4 Bft) 96,58 %
15.02.2019 14:00 15,9 C 19,7 C 14,9 C 50 % 1027,8 hPa 0,0 l/m 1,00 h 0,00 h 429 W/m 18,9 km/h (3 Bft) 97,59 %
15.02.2019 15:00 16,5 C 19,8 C 14,4 C 49 % 1027,1 hPa 0,0 l/m 1,00 h 0,00 h 322 W/m 14,6 km/h (3 Bft) 96,86 %
15.02.2019 16:00 16,1 C 16,4 C 13,4 C 51 % 1026,4 hPa 0,0 l/m 0,37 h 0,00 h 94 W/m 11,0 km/h (2 Bft) 82,86 %
15.02.2019 17:00 14,6 C 13,1 C 10,5 C 54 % 1025,9 hPa 0,0 l/m 0,00 h 0,00 h 13 W/m 6,6 km/h (2 Bft) 94,74 %
15.02.2019 18:00 12,7 C 11,4 C 8,0 C 57 % 1025,7 hPa 0,0 l/m 0,00 h 0,00 h 0 W/m 7,1 km/h (2 Bft) 97,20 %
15.02.2019 19:00 11,6 C 10,7 C 9,4 C 59 % 1025,6 hPa 0,0 l/m 0,00 h 0,00 h 0 W/m 11,5 km/h (2 Bft) 93,23 %
15.02.2019 20:00 10,8 C 9,9 C 9,0 C 61 % 1025,5 hPa 0,0 l/m 0,00 h 0,00 h 0 W/m 16,7 km/h (3 Bft) 96,52 %
15.02.2019 21:00 10,1 C 9,4 C 8,3 C 62 % 1025,3 hPa 0,0 l/m 0,00 h 0,00 h 0 W/m 17,2 km/h (3 Bft) 95,51 %
15.02.2019 22:00 9,5 C 8,5 C 7,6 C 64 % 1025,2 hPa 0,0 l/m 0,00 h 0,00 h 0 W/m 16,5 km/h (3 Bft) 93,03 %
15.02.2019 23:00 8,4 C 7,5 C 6,6 C 67 % 1025,0 hPa 0,0 l/m 0,00 h 0,00 h 0 W/m 14,9 km/h (3 Bft) 96,23 %
16.02.2019 00:00 7,2 C 6,2 C 5,3 C 70 % 1024,7 hPa 0,0 l/m 0,00 h 0,00 h 0 W/m 12,3 km/h (3 Bft) 95,88 %
16.02.2019 01:00 6,7 C 6,1 C 5,2 C 72 % 1024,6 hPa 0,0 l/m 0,00 h 0,00 h 0 W/m 15,7 km/h (3 Bft) 98,01 %
16.02.2019 02:00 6,5 C 5,8 C 4,8 C 73 % 1024,2 hPa 0,0 l/m 0,00 h 0,00 h 0 W/m 14,8 km/h (3 Bft) 96,94 %
16.02.2019 03:00 5,9 C 5,0 C 4,4 C 74 % 1024,0 hPa 0,0 l/m 0,00 h 0,00 h 0 W/m 15,2 km/h (3 Bft) 94,23 %
16.02.2019 04:00 5,5 C 4,7 C 3,9 C 76 % 1023,8 hPa 0,0 l/m 0,00 h 0,00 h 0 W/m 17,2 km/h (3 Bft) 92,37 %
16.02.2019 05:00 4,9 C 4,3 C 3,3 C 78 % 1023,6 hPa 0,0 l/m 0,00 h 0,00 h 0 W/m 12,1 km/h (2 Bft) 87,19 %
16.02.2019 06:00 4,5 C 3,9 C 3,2 C 80 % 1023,5 hPa 0,0 l/m 0,00 h 0,00 h 0 W/m 14,4 km/h (3 Bft) 89,33 %
16.02.2019 07:00 4,3 C 3,7 C 2,9 C 80 % 1023,6 hPa 0,0 l/m 0,00 h 0,00 h 6 W/m 15,7 km/h (3 Bft) 94,02 %
16.02.2019 08:00 4,2 C 3,8 C 3,0 C 81 % 1024,1 hPa 0,0 l/m 0,00 h 0,00 h 19 W/m 16,0 km/h (3 Bft) 97,51 %
16.02.2019 09:00 5,4 C 7,4 C 5,0 C 79 % 1024,3 hPa 0,0 l/m 0,53 h 0,00 h 156 W/m 18,2 km/h (3 Bft) 97,41 %
16.02.2019 10:00 8,5 C 13,2 C 8,0 C 71 % 1024,1 hPa 0,0 l/m 1,00 h 0,00 h 355 W/m 14,0 km/h (3 Bft) 96,07 %
16.02.2019 11:00 11,0 C 15,9 C 9,6 C 65 % 1024,3 hPa 0,0 l/m 1,00 h 0,00 h 447 W/m 12,9 km/h (3 Bft) 95,59 %
16.02.2019 12:00 13,4 C 19,0 C 15,0 C 60 % 1024,0 hPa 0,0 l/m 1,00 h 0,00 h 496 W/m 13,0 km/h (3 Bft) 90,93 %
16.02.2019 13:00 15,5 C 21,0 C 16,3 C 55 % 1023,7 hPa 0,0 l/m 1,00 h 0,00 h 484 W/m 11,3 km/h (2 Bft) 92,29 %
16.02.2019 14:00 16,2 C 20,5 C 14,6 C 52 % 1023,4 hPa 0,0 l/m 1,00 h 0,00 h 401 W/m 13,2 km/h (3 Bft) 97,66 %
16.02.2019 15:00 16,2 C 19,2 C 13,8 C 51 % 1023,2 hPa 0,0 l/m 1,00 h 0,00 h 299 W/m 11,7 km/h (2 Bft) 98,79 %
16.02.2019 16:00 15,3 C 15,2 C 12,3 C 54 % 1023,0 hPa 0,0 l/m 0,40 h 0,00 h 103 W/m 7,7 km/h (2 Bft) 96,09 %
16.02.2019 17:00 13,7 C 11,9 C 8,5 C 58 % 1022,8 hPa 0,0 l/m 0,00 h 0,00 h 22 W/m 3,6 km/h (1 Bft) 97,22 %
16.02.2019 18:00 10,3 C 7,0 C 5,0 C 68 % 1022,8 hPa 0,0 l/m 0,00 h 0,00 h 0 W/m 0,1 km/h (0 Bft) 93,54 %
16.02.2019 19:00 7,8 C 5,6 C 3,6 C 75 % 1022,9 hPa 0,0 l/m 0,00 h 0,00 h 0 W/m 0,7 km/h (0 Bft) 97,87 %
16.02.2019 20:00 6,5 C 5,5 C 2,9 C 79 % 1022,9 hPa 0,0 l/m 0,00 h 0,00 h 0 W/m 1,5 km/h (1 Bft) 93,73 %
16.02.2019 21:00 5,5 C 3,4 C 1,9 C 80 % 1022,7 hPa 0,0 l/m 0,00 h 0,00 h 0 W/m 0,0 km/h (0 Bft) 97,65 %
16.02.2019 22:00 4,4 C 3,4 C 1,5 C 84 % 1022,7 hPa 0,0 l/m 0,00 h 0,00 h 0 W/m 1,7 km/h (1 Bft) 99,64 %
16.02.2019 23:00 3,8 C 2,5 C 0,8 C 86 % 1022,7 hPa 0,0 l/m 0,00 h 0,00 h 0 W/m 0,2 km/h (0 Bft) 97,12 %
17.02.2019 00:00 3,0 C 1,8 C 0,3 C 87 % 1022,7 hPa 0,0 l/m 0,00 h 0,00 h 0 W/m 1,7 km/h (1 Bft) 95,66 %
17.02.2019 01:00 4,0 C 4,4 C 3,0 C 90 % 1022,3 hPa 0,0 l/m 0,00 h 0,00 h 0 W/m 10,1 km/h (2 Bft) 98,71 %
17.02.2019 02:00 4,7 C 4,1 C 3,2 C 88 % 1022,1 hPa 0,0 l/m 0,00 h 0,00 h 0 W/m 11,0 km/h (2 Bft) 96,64 %
17.02.2019 03:00 4,6 C 3,9 C 3,2 C 87 % 1021,7 hPa 0,0 l/m 0,00 h 0,00 h 0 W/m 11,0 km/h (2 Bft) 98,93 %
17.02.2019 04:00 4,4 C 3,7 C 2,9 C 87 % 1021,2 hPa 0,0 l/m 0,00 h 0,00 h 0 W/m 9,2 km/h (2 Bft) 96,56 %
17.02.2019 05:00 4,2 C 3,8 C 2,8 C 87 % 1020,9 hPa 0,0 l/m 0,00 h 0,00 h 0 W/m 12,6 km/h (3 Bft) 96,68 %
17.02.2019 06:00 4,2 C 3,7 C 2,8 C 87 % 1020,6 hPa 0,0 l/m 0,00 h 0,00 h 0 W/m 11,4 km/h (2 Bft) 97,55 %
17.02.2019 07:00 4,0 C 3,3 C 2,8 C 88 % 1020,4 hPa 0,0 l/m 0,00 h 0,00 h 6 W/m 13,1 km/h (3 Bft) 97,46 %
17.02.2019 08:00 4,0 C 4,0 C 3,1 C 89 % 1020,5 hPa 0,0 l/m 0,00 h 0,00 h 41 W/m 14,0 km/h (3 Bft) 95,26 %
17.02.2019 09:00 5,3 C 6,8 C 5,2 C 88 % 1020,2 hPa 0,0 l/m 0,57 h 0,00 h 149 W/m 16,5 km/h (3 Bft) 98,86 %
17.02.2019 10:00 7,7 C 10,8 C 7,5 C 81 % 1019,8 hPa 0,0 l/m 1,00 h 0,00 h 288 W/m 17,2 km/h (3 Bft) 95,44 %
17.02.2019 11:00 10,3 C 14,3 C 9,7 C 72 % 1019,6 hPa 0,0 l/m 1,00 h 0,00 h 399 W/m 18,0 km/h (3 Bft) 84,77 %
17.02.2019 12:00 12,4 C 16,1 C 13,5 C 64 % 1019,0 hPa 0,0 l/m 1,00 h 0,00 h 452 W/m 21,7 km/h (4 Bft) 98,00 %
17.02.2019 13:00 14,4 C 18,5 C 15,5 C 59 % 1018,4 hPa 0,0 l/m 1,00 h 0,00 h 472 W/m 20,5 km/h (4 Bft) 97,37 %
17.02.2019 14:00 15,4 C 19,0 C 14,7 C 56 % 1017,7 hPa 0,0 l/m 1,00 h 0,00 h 428 W/m 21,4 km/h (4 Bft) 98,15 %
17.02.2019 15:00 16,4 C 19,1 C 15,0 C 53 % 1017,2 hPa 0,0 l/m 1,00 h 0,00 h 311 W/m 16,6 km/h (3 Bft) 95,80 %
17.02.2019 16:00 16,1 C 16,3 C 14,1 C 53 % 1017,1 hPa 0,0 l/m 0,40 h 0,00 h 112 W/m 12,4 km/h (3 Bft) 97,65 %
17.02.2019 17:00 14,7 C 13,2 C 12,1 C 56 % 1016,8 hPa 0,0 l/m 0,00 h 0,00 h 20 W/m 9,9 km/h (2 Bft) 90,76 %
17.02.2019 18:00 12,8 C 11,6 C 10,4 C 60 % 1017,0 hPa 0,0 l/m 0,00 h 0,00 h 0 W/m 9,6 km/h (2 Bft) 95,51 %
17.02.2019 19:00 11,6 C 10,3 C 9,4 C 63 % 1017,4 hPa 0,0 l/m 0,00 h 0,00 h 0 W/m 11,0 km/h (2 Bft) 99,00 %
17.02.2019 20:00 9,9 C 8,7 C 7,8 C 67 % 1017,6 hPa 0,0 l/m 0,00 h 0,00 h 0 W/m 10,2 km/h (2 Bft) 96,16 %
17.02.2019 21:00 8,7 C 7,6 C 6,8 C 69 % 1017,8 hPa 0,0 l/m 0,00 h 0,00 h 0 W/m 8,0 km/h (2 Bft) 96,66 %
17.02.2019 22:00 7,9 C 7,0 C 6,0 C 70 % 1018,0 hPa 0,0 l/m 0,00 h 0,00 h 0 W/m 8,3 km/h (2 Bft) 97,43 %
17.02.2019 23:00 7,4 C 6,7 C 5,7 C 71 % 1017,8 hPa 0,0 l/m 0,00 h 0,00 h 0 W/m 10,1 km/h (2 Bft) 99,50 %
Min-Datum _ 12.02.19 12.02.19 11.02.19 15.02.19 11.02.19 - - - - 11.02.19 13.02.19
_ Min-Zeit 05:38 00:36 22:14 14:26 00:00 - - - - 19:16 00:02
Minimum _ 0,2 C -0,6 C -1,7 C 49 % 1001,6 hPa - - - - 0,0 km/h (0 Bft) 9,52 %
Max-Datum _ 15.02.19 16.02.19 16.02.19 11.02.19 13.02.19 11.02.19 13.02.19 11.02.19 14.02.19 11.02.19 11.02.19
_ Max-Zeit 15:32 13:26 12:54 00:36 09:22 00:00 12:08 00:07 12:56 13:52 01:16
Maximum _ 16,6 C 22,2 C 21,1 C 98 % 1034,6 hPa 0,8 l/m 0,07 h 0,05 h 579 W/m 38,6 km/h
W-NW (5 Bft)
100,00 %
Durchschnitt _ 6,2 C 6,4 C 4,7 C 80 % 1026,5 hPa #3,4 l/m #39:40 h #4:18 h 205 W/m 10,8 km/h (2 Bft) 96,00 %
© 2019 W. Hausmann